sensor_id;sensor_type;location;lat;lon;timestamp;P1;durP1;ratioP1;P2;durP2;ratioP2
12707;SDS011;6418;50.824;4.718;2023-08-08T00:01:32;13.60;;;5.60;;
12707;SDS011;6418;50.824;4.718;2023-08-08T00:04:00;13.10;;;5.50;;
12707;SDS011;6418;50.824;4.718;2023-08-08T00:06:27;10.37;;;5.13;;
12707;SDS011;6418;50.824;4.718;2023-08-08T00:08:54;12.13;;;5.20;;
12707;SDS011;6418;50.824;4.718;2023-08-08T00:11:22;10.53;;;5.43;;
12707;SDS011;6418;50.824;4.718;2023-08-08T00:13:49;12.27;;;5.20;;
12707;SDS011;6418;50.824;4.718;2023-08-08T00:16:16;11.50;;;5.00;;
12707;SDS011;6418;50.824;4.718;2023-08-08T00:18:43;14.33;;;5.10;;
12707;SDS011;6418;50.824;4.718;2023-08-08T00:21:10;14.03;;;5.13;;
12707;SDS011;6418;50.824;4.718;2023-08-08T00:23:36;12.57;;;5.33;;
12707;SDS011;6418;50.824;4.718;2023-08-08T00:26:03;14.63;;;5.67;;
12707;SDS011;6418;50.824;4.718;2023-08-08T00:28:31;12.20;;;5.70;;
12707;SDS011;6418;50.824;4.718;2023-08-08T00:30:58;15.43;;;5.57;;
12707;SDS011;6418;50.824;4.718;2023-08-08T00:33:25;12.13;;;5.50;;
12707;SDS011;6418;50.824;4.718;2023-08-08T00:35:52;14.63;;;5.60;;
12707;SDS011;6418;50.824;4.718;2023-08-08T00:38:19;14.10;;;5.77;;
12707;SDS011;6418;50.824;4.718;2023-08-08T00:40:46;11.77;;;5.83;;
12707;SDS011;6418;50.824;4.718;2023-08-08T00:43:13;14.03;;;5.87;;
12707;SDS011;6418;50.824;4.718;2023-08-08T00:45:41;14.53;;;6.30;;
12707;SDS011;6418;50.824;4.718;2023-08-08T00:48:10;14.90;;;6.17;;
12707;SDS011;6418;50.824;4.718;2023-08-08T00:50:41;16.03;;;6.23;;
12707;SDS011;6418;50.824;4.718;2023-08-08T00:53:09;14.73;;;6.07;;
12707;SDS011;6418;50.824;4.718;2023-08-08T00:55:36;14.80;;;6.33;;
12707;SDS011;6418;50.824;4.718;2023-08-08T00:58:04;13.33;;;5.80;;
12707;SDS011;6418;50.824;4.718;2023-08-08T01:00:32;13.63;;;6.20;;
12707;SDS011;6418;50.824;4.718;2023-08-08T01:03:00;16.20;;;6.20;;
12707;SDS011;6418;50.824;4.718;2023-08-08T01:05:28;15.60;;;6.17;;
12707;SDS011;6418;50.824;4.718;2023-08-08T01:08:02;16.60;;;6.40;;
12707;SDS011;6418;50.824;4.718;2023-08-08T01:10:33;16.60;;;6.17;;
12707;SDS011;6418;50.824;4.718;2023-08-08T01:13:02;14.00;;;6.57;;
12707;SDS011;6418;50.824;4.718;2023-08-08T01:15:33;22.13;;;6.50;;
12707;SDS011;6418;50.824;4.718;2023-08-08T01:18:03;16.03;;;6.53;;
12707;SDS011;6418;50.824;4.718;2023-08-08T01:20:31;19.63;;;6.50;;
12707;SDS011;6418;50.824;4.718;2023-08-08T01:23:03;15.07;;;6.10;;
12707;SDS011;6418;50.824;4.718;2023-08-08T01:25:38;17.03;;;6.93;;
12707;SDS011;6418;50.824;4.718;2023-08-08T01:28:05;15.57;;;6.97;;
12707;SDS011;6418;50.824;4.718;2023-08-08T01:30:33;17.20;;;6.87;;
12707;SDS011;6418;50.824;4.718;2023-08-08T01:33:00;18.00;;;6.60;;
12707;SDS011;6418;50.824;4.718;2023-08-08T01:35:28;21.83;;;7.33;;
12707;SDS011;6418;50.824;4.718;2023-08-08T01:37:59;15.77;;;7.37;;
12707;SDS011;6418;50.824;4.718;2023-08-08T01:40:31;20.03;;;7.40;;
12707;SDS011;6418;50.824;4.718;2023-08-08T01:43:01;16.43;;;7.40;;
12707;SDS011;6418;50.824;4.718;2023-08-08T01:45:30;17.47;;;7.50;;
12707;SDS011;6418;50.824;4.718;2023-08-08T01:47:57;20.27;;;7.87;;
12707;SDS011;6418;50.824;4.718;2023-08-08T01:50:24;17.80;;;7.47;;
12707;SDS011;6418;50.824;4.718;2023-08-08T01:52:51;15.97;;;7.10;;
12707;SDS011;6418;50.824;4.718;2023-08-08T01:55:18;18.00;;;7.40;;
12707;SDS011;6418;50.824;4.718;2023-08-08T01:57:45;16.67;;;7.50;;
12707;SDS011;6418;50.824;4.718;2023-08-08T02:00:13;18.47;;;7.17;;
12707;SDS011;6418;50.824;4.718;2023-08-08T02:02:40;19.50;;;7.50;;
12707;SDS011;6418;50.824;4.718;2023-08-08T02:05:07;20.70;;;7.40;;
12707;SDS011;6418;50.824;4.718;2023-08-08T02:07:34;19.27;;;7.30;;
12707;SDS011;6418;50.824;4.718;2023-08-08T02:10:02;19.30;;;7.73;;
12707;SDS011;6418;50.824;4.718;2023-08-08T02:12:29;19.30;;;7.40;;
12707;SDS011;6418;50.824;4.718;2023-08-08T02:14:56;16.47;;;7.23;;
12707;SDS011;6418;50.824;4.718;2023-08-08T02:17:25;17.93;;;7.60;;
12707;SDS011;6418;50.824;4.718;2023-08-08T02:19:52;21.90;;;7.17;;
12707;SDS011;6418;50.824;4.718;2023-08-08T02:22:19;17.67;;;8.00;;
12707;SDS011;6418;50.824;4.718;2023-08-08T02:24:46;18.17;;;7.37;;
12707;SDS011;6418;50.824;4.718;2023-08-08T02:27:13;21.70;;;7.53;;
12707;SDS011;6418;50.824;4.718;2023-08-08T02:29:40;17.03;;;7.47;;
12707;SDS011;6418;50.824;4.718;2023-08-08T02:32:07;18.33;;;7.37;;
12707;SDS011;6418;50.824;4.718;2023-08-08T02:34:35;20.77;;;7.77;;
12707;SDS011;6418;50.824;4.718;2023-08-08T02:37:03;19.13;;;8.03;;
12707;SDS011;6418;50.824;4.718;2023-08-08T02:39:30;22.67;;;8.23;;
12707;SDS011;6418;50.824;4.718;2023-08-08T02:41:57;21.53;;;7.63;;
12707;SDS011;6418;50.824;4.718;2023-08-08T02:44:24;21.87;;;8.10;;
12707;SDS011;6418;50.824;4.718;2023-08-08T02:46:51;20.33;;;7.73;;
12707;SDS011;6418;50.824;4.718;2023-08-08T02:49:18;23.03;;;8.37;;
12707;SDS011;6418;50.824;4.718;2023-08-08T02:51:46;19.93;;;8.17;;
12707;SDS011;6418;50.824;4.718;2023-08-08T02:54:13;23.37;;;8.10;;
12707;SDS011;6418;50.824;4.718;2023-08-08T02:56:40;23.03;;;7.97;;
12707;SDS011;6418;50.824;4.718;2023-08-08T02:59:07;21.50;;;8.07;;
12707;SDS011;6418;50.824;4.718;2023-08-08T03:01:34;20.57;;;8.27;;
12707;SDS011;6418;50.824;4.718;2023-08-08T03:04:04;21.67;;;8.20;;
12707;SDS011;6418;50.824;4.718;2023-08-08T03:06:31;19.60;;;8.00;;
12707;SDS011;6418;50.824;4.718;2023-08-08T03:09:00;22.63;;;8.70;;
12707;SDS011;6418;50.824;4.718;2023-08-08T03:11:27;26.53;;;8.03;;
12707;SDS011;6418;50.824;4.718;2023-08-08T03:13:54;23.97;;;8.57;;
12707;SDS011;6418;50.824;4.718;2023-08-08T03:16:20;22.87;;;8.33;;
12707;SDS011;6418;50.824;4.718;2023-08-08T03:18:48;18.50;;;8.27;;
12707;SDS011;6418;50.824;4.718;2023-08-08T03:21:14;21.07;;;8.10;;
12707;SDS011;6418;50.824;4.718;2023-08-08T03:23:41;22.87;;;7.80;;
12707;SDS011;6418;50.824;4.718;2023-08-08T03:26:11;21.67;;;7.60;;
12707;SDS011;6418;50.824;4.718;2023-08-08T03:28:38;28.40;;;8.40;;
12707;SDS011;6418;50.824;4.718;2023-08-08T03:31:05;19.53;;;7.67;;
12707;SDS011;6418;50.824;4.718;2023-08-08T03:33:32;21.53;;;7.90;;
12707;SDS011;6418;50.824;4.718;2023-08-08T03:35:59;20.47;;;8.20;;
12707;SDS011;6418;50.824;4.718;2023-08-08T03:38:26;20.03;;;8.17;;
12707;SDS011;6418;50.824;4.718;2023-08-08T03:40:53;24.13;;;8.30;;
12707;SDS011;6418;50.824;4.718;2023-08-08T03:43:21;23.57;;;8.50;;
12707;SDS011;6418;50.824;4.718;2023-08-08T03:45:49;23.63;;;8.73;;
12707;SDS011;6418;50.824;4.718;2023-08-08T03:48:15;21.80;;;9.00;;
12707;SDS011;6418;50.824;4.718;2023-08-08T03:50:42;29.23;;;9.67;;
12707;SDS011;6418;50.824;4.718;2023-08-08T03:53:11;25.50;;;9.07;;
12707;SDS011;6418;50.824;4.718;2023-08-08T03:55:38;26.53;;;9.33;;
12707;SDS011;6418;50.824;4.718;2023-08-08T03:58:05;24.23;;;8.57;;
12707;SDS011;6418;50.824;4.718;2023-08-08T04:00:33;23.23;;;9.87;;
12707;SDS011;6418;50.824;4.718;2023-08-08T04:03:01;22.27;;;9.83;;
12707;SDS011;6418;50.824;4.718;2023-08-08T04:05:28;24.43;;;9.83;;
12707;SDS011;6418;50.824;4.718;2023-08-08T04:07:55;27.43;;;10.67;;
12707;SDS011;6418;50.824;4.718;2023-08-08T04:10:22;26.57;;;10.00;;
12707;SDS011;6418;50.824;4.718;2023-08-08T04:12:49;27.23;;;9.87;;
12707;SDS011;6418;50.824;4.718;2023-08-08T04:15:16;24.93;;;9.97;;
12707;SDS011;6418;50.824;4.718;2023-08-08T04:17:44;27.60;;;10.43;;
12707;SDS011;6418;50.824;4.718;2023-08-08T04:20:11;30.57;;;10.47;;
12707;SDS011;6418;50.824;4.718;2023-08-08T04:22:39;30.83;;;10.73;;
12707;SDS011;6418;50.824;4.718;2023-08-08T04:25:06;26.50;;;10.47;;
12707;SDS011;6418;50.824;4.718;2023-08-08T04:27:34;33.37;;;11.90;;
12707;SDS011;6418;50.824;4.718;2023-08-08T04:30:01;30.23;;;10.90;;
12707;SDS011;6418;50.824;4.718;2023-08-08T04:32:29;23.53;;;10.83;;
12707;SDS011;6418;50.824;4.718;2023-08-08T04:34:57;25.67;;;10.23;;
12707;SDS011;6418;50.824;4.718;2023-08-08T04:37:24;27.43;;;11.30;;
12707;SDS011;6418;50.824;4.718;2023-08-08T04:39:51;27.50;;;10.77;;
12707;SDS011;6418;50.824;4.718;2023-08-08T04:42:18;26.53;;;10.77;;
12707;SDS011;6418;50.824;4.718;2023-08-08T04:44:45;30.27;;;11.53;;
12707;SDS011;6418;50.824;4.718;2023-08-08T04:47:12;28.23;;;11.73;;
12707;SDS011;6418;50.824;4.718;2023-08-08T04:49:39;31.47;;;10.73;;
12707;SDS011;6418;50.824;4.718;2023-08-08T04:52:07;31.50;;;11.53;;
12707;SDS011;6418;50.824;4.718;2023-08-08T04:54:34;22.07;;;10.83;;
12707;SDS011;6418;50.824;4.718;2023-08-08T04:57:01;31.67;;;10.93;;
12707;SDS011;6418;50.824;4.718;2023-08-08T04:59:28;28.30;;;11.80;;
12707;SDS011;6418;50.824;4.718;2023-08-08T05:01:55;24.43;;;11.23;;
12707;SDS011;6418;50.824;4.718;2023-08-08T05:04:22;25.50;;;10.33;;
12707;SDS011;6418;50.824;4.718;2023-08-08T05:06:49;25.37;;;10.93;;
12707;SDS011;6418;50.824;4.718;2023-08-08T05:09:17;26.90;;;11.07;;
12707;SDS011;6418;50.824;4.718;2023-08-08T05:11:45;28.13;;;11.00;;
12707;SDS011;6418;50.824;4.718;2023-08-08T05:14:12;22.47;;;10.87;;
12707;SDS011;6418;50.824;4.718;2023-08-08T05:16:39;26.80;;;10.80;;
12707;SDS011;6418;50.824;4.718;2023-08-08T05:19:06;25.03;;;10.90;;
12707;SDS011;6418;50.824;4.718;2023-08-08T05:21:34;25.23;;;10.73;;
12707;SDS011;6418;50.824;4.718;2023-08-08T05:24:01;27.67;;;11.67;;
12707;SDS011;6418;50.824;4.718;2023-08-08T05:26:29;23.60;;;10.77;;
12707;SDS011;6418;50.824;4.718;2023-08-08T05:28:56;28.37;;;10.83;;
12707;SDS011;6418;50.824;4.718;2023-08-08T05:31:23;24.30;;;10.20;;
12707;SDS011;6418;50.824;4.718;2023-08-08T05:33:50;29.53;;;10.30;;
12707;SDS011;6418;50.824;4.718;2023-08-08T05:36:17;26.97;;;10.37;;
12707;SDS011;6418;50.824;4.718;2023-08-08T05:38:45;21.63;;;9.80;;
12707;SDS011;6418;50.824;4.718;2023-08-08T05:41:12;29.27;;;10.23;;
12707;SDS011;6418;50.824;4.718;2023-08-08T05:43:40;26.07;;;10.00;;
12707;SDS011;6418;50.824;4.718;2023-08-08T05:46:07;25.50;;;10.20;;
12707;SDS011;6418;50.824;4.718;2023-08-08T05:48:34;25.10;;;9.80;;
12707;SDS011;6418;50.824;4.718;2023-08-08T05:51:01;24.97;;;9.63;;
12707;SDS011;6418;50.824;4.718;2023-08-08T05:53:30;20.17;;;9.13;;
12707;SDS011;6418;50.824;4.718;2023-08-08T05:55:57;25.50;;;9.17;;
12707;SDS011;6418;50.824;4.718;2023-08-08T05:58:24;23.93;;;9.20;;
12707;SDS011;6418;50.824;4.718;2023-08-08T06:00:52;24.67;;;8.90;;
12707;SDS011;6418;50.824;4.718;2023-08-08T06:03:19;23.17;;;9.37;;
12707;SDS011;6418;50.824;4.718;2023-08-08T06:05:46;21.97;;;9.17;;
12707;SDS011;6418;50.824;4.718;2023-08-08T06:08:13;19.80;;;8.97;;
12707;SDS011;6418;50.824;4.718;2023-08-08T06:10:41;21.47;;;8.87;;
12707;SDS011;6418;50.824;4.718;2023-08-08T06:13:08;18.50;;;8.47;;
12707;SDS011;6418;50.824;4.718;2023-08-08T06:15:35;25.97;;;9.30;;
12707;SDS011;6418;50.824;4.718;2023-08-08T06:18:04;24.07;;;9.57;;
12707;SDS011;6418;50.824;4.718;2023-08-08T06:20:31;22.00;;;8.67;;
12707;SDS011;6418;50.824;4.718;2023-08-08T06:22:58;23.17;;;9.00;;
12707;SDS011;6418;50.824;4.718;2023-08-08T06:25:25;20.27;;;8.73;;
12707;SDS011;6418;50.824;4.718;2023-08-08T06:27:53;19.80;;;8.77;;
12707;SDS011;6418;50.824;4.718;2023-08-08T06:30:20;19.60;;;8.33;;
12707;SDS011;6418;50.824;4.718;2023-08-08T06:32:47;21.17;;;8.17;;
12707;SDS011;6418;50.824;4.718;2023-08-08T06:35:15;21.83;;;8.87;;
12707;SDS011;6418;50.824;4.718;2023-08-08T06:37:43;22.90;;;8.87;;
12707;SDS011;6418;50.824;4.718;2023-08-08T06:40:10;20.27;;;8.77;;
12707;SDS011;6418;50.824;4.718;2023-08-08T06:42:38;20.83;;;8.77;;
12707;SDS011;6418;50.824;4.718;2023-08-08T06:45:05;22.40;;;8.17;;
12707;SDS011;6418;50.824;4.718;2023-08-08T06:47:35;17.03;;;7.27;;
12707;SDS011;6418;50.824;4.718;2023-08-08T06:50:02;18.73;;;7.50;;
12707;SDS011;6418;50.824;4.718;2023-08-08T06:52:31;20.80;;;7.50;;
12707;SDS011;6418;50.824;4.718;2023-08-08T07:15:42;18.60;;;6.00;;
12707;SDS011;6418;50.824;4.718;2023-08-08T07:18:09;18.43;;;5.27;;
12707;SDS011;6418;50.824;4.718;2023-08-08T07:20:36;17.07;;;5.70;;
12707;SDS011;6418;50.824;4.718;2023-08-08T07:23:04;13.43;;;5.23;;
12707;SDS011;6418;50.824;4.718;2023-08-08T07:25:31;14.67;;;5.37;;
12707;SDS011;6418;50.824;4.718;2023-08-08T07:27:58;19.07;;;5.77;;
12707;SDS011;6418;50.824;4.718;2023-08-08T07:30:25;20.93;;;5.50;;
12707;SDS011;6418;50.824;4.718;2023-08-08T07:32:53;15.37;;;5.63;;
12707;SDS011;6418;50.824;4.718;2023-08-08T07:35:20;12.57;;;5.30;;
12707;SDS011;6418;50.824;4.718;2023-08-08T07:37:47;22.13;;;5.73;;
12707;SDS011;6418;50.824;4.718;2023-08-08T07:40:14;14.67;;;5.67;;
12707;SDS011;6418;50.824;4.718;2023-08-08T07:42:42;16.40;;;5.83;;
12707;SDS011;6418;50.824;4.718;2023-08-08T07:45:09;17.80;;;5.77;;
12707;SDS011;6418;50.824;4.718;2023-08-08T07:47:36;15.63;;;5.50;;
12707;SDS011;6418;50.824;4.718;2023-08-08T07:50:06;18.10;;;6.17;;
12707;SDS011;6418;50.824;4.718;2023-08-08T07:52:34;17.93;;;5.33;;
12707;SDS011;6418;50.824;4.718;2023-08-08T07:55:01;13.90;;;5.13;;
12707;SDS011;6418;50.824;4.718;2023-08-08T07:57:29;15.87;;;5.70;;
12707;SDS011;6418;50.824;4.718;2023-08-08T07:59:58;14.80;;;5.33;;
12707;SDS011;6418;50.824;4.718;2023-08-08T08:02:31;15.90;;;5.27;;
12707;SDS011;6418;50.824;4.718;2023-08-08T08:04:57;17.30;;;5.23;;
12707;SDS011;6418;50.824;4.718;2023-08-08T08:07:26;12.63;;;4.90;;
12707;SDS011;6418;50.824;4.718;2023-08-08T08:09:53;14.50;;;5.50;;
12707;SDS011;6418;50.824;4.718;2023-08-08T08:12:20;12.67;;;4.87;;
12707;SDS011;6418;50.824;4.718;2023-08-08T08:14:47;17.13;;;5.37;;
12707;SDS011;6418;50.824;4.718;2023-08-08T08:17:14;15.60;;;5.27;;
12707;SDS011;6418;50.824;4.718;2023-08-08T08:19:41;15.77;;;5.23;;
12707;SDS011;6418;50.824;4.718;2023-08-08T08:22:08;15.70;;;5.10;;
12707;SDS011;6418;50.824;4.718;2023-08-08T08:24:36;12.80;;;5.07;;
12707;SDS011;6418;50.824;4.718;2023-08-08T08:27:03;14.00;;;5.10;;
12707;SDS011;6418;50.824;4.718;2023-08-08T08:29:30;12.13;;;5.23;;
12707;SDS011;6418;50.824;4.718;2023-08-08T08:31:58;14.87;;;4.80;;
12707;SDS011;6418;50.824;4.718;2023-08-08T08:34:25;13.53;;;5.30;;
12707;SDS011;6418;50.824;4.718;2023-08-08T08:36:52;15.87;;;5.70;;
12707;SDS011;6418;50.824;4.718;2023-08-08T08:39:19;14.93;;;5.23;;
12707;SDS011;6418;50.824;4.718;2023-08-08T08:41:48;13.73;;;5.03;;
12707;SDS011;6418;50.824;4.718;2023-08-08T08:44:18;14.00;;;5.13;;
12707;SDS011;6418;50.824;4.718;2023-08-08T08:46:47;17.40;;;5.40;;
12707;SDS011;6418;50.824;4.718;2023-08-08T08:49:18;16.03;;;5.67;;
12707;SDS011;6418;50.824;4.718;2023-08-08T08:51:48;11.83;;;4.80;;
12707;SDS011;6418;50.824;4.718;2023-08-08T08:54:15;14.70;;;5.10;;
12707;SDS011;6418;50.824;4.718;2023-08-08T08:56:42;12.23;;;5.27;;
12707;SDS011;6418;50.824;4.718;2023-08-08T08:59:11;14.83;;;5.20;;
12707;SDS011;6418;50.824;4.718;2023-08-08T09:01:38;15.33;;;5.30;;
12707;SDS011;6418;50.824;4.718;2023-08-08T09:04:05;12.20;;;4.77;;
12707;SDS011;6418;50.824;4.718;2023-08-08T09:06:34;19.73;;;5.10;;
12707;SDS011;6418;50.824;4.718;2023-08-08T09:09:03;11.77;;;5.10;;
12707;SDS011;6418;50.824;4.718;2023-08-08T09:11:31;15.10;;;4.77;;
12707;SDS011;6418;50.824;4.718;2023-08-08T09:13:58;10.90;;;5.10;;
12707;SDS011;6418;50.824;4.718;2023-08-08T09:16:28;14.87;;;5.00;;
12707;SDS011;6418;50.824;4.718;2023-08-08T09:18:56;15.10;;;5.00;;
12707;SDS011;6418;50.824;4.718;2023-08-08T09:21:23;13.17;;;4.77;;
12707;SDS011;6418;50.824;4.718;2023-08-08T09:23:50;15.27;;;5.17;;
12707;SDS011;6418;50.824;4.718;2023-08-08T09:26:17;11.77;;;4.70;;
12707;SDS011;6418;50.824;4.718;2023-08-08T09:28:45;13.03;;;4.80;;
12707;SDS011;6418;50.824;4.718;2023-08-08T09:31:11;11.07;;;4.80;;
12707;SDS011;6418;50.824;4.718;2023-08-08T09:33:40;10.33;;;4.60;;
12707;SDS011;6418;50.824;4.718;2023-08-08T09:36:10;14.67;;;4.67;;
12707;SDS011;6418;50.824;4.718;2023-08-08T09:38:40;12.53;;;4.63;;
12707;SDS011;6418;50.824;4.718;2023-08-08T09:41:07;13.13;;;5.23;;
12707;SDS011;6418;50.824;4.718;2023-08-08T09:43:34;12.57;;;4.73;;
12707;SDS011;6418;50.824;4.718;2023-08-08T09:46:01;10.87;;;4.47;;
12707;SDS011;6418;50.824;4.718;2023-08-08T09:48:29;11.23;;;4.63;;
12707;SDS011;6418;50.824;4.718;2023-08-08T09:50:58;13.07;;;4.80;;
12707;SDS011;6418;50.824;4.718;2023-08-08T09:53:26;14.13;;;4.93;;
12707;SDS011;6418;50.824;4.718;2023-08-08T09:55:54;11.70;;;4.77;;
12707;SDS011;6418;50.824;4.718;2023-08-08T09:58:21;15.97;;;4.57;;
12707;SDS011;6418;50.824;4.718;2023-08-08T10:13:52;11.15;;;4.70;;
12707;SDS011;6418;50.824;4.718;2023-08-08T10:16:20;11.77;;;4.78;;
12707;SDS011;6418;50.824;4.718;2023-08-08T10:18:54;13.13;;;4.72;;
12707;SDS011;6418;50.824;4.718;2023-08-08T10:21:22;11.30;;;4.60;;
12707;SDS011;6418;50.824;4.718;2023-08-08T10:24:00;13.80;;;4.70;;
12707;SDS011;6418;50.824;4.718;2023-08-08T10:26:28;11.67;;;4.47;;
12707;SDS011;6418;50.824;4.718;2023-08-08T10:28:58;12.40;;;4.80;;
12707;SDS011;6418;50.824;4.718;2023-08-08T10:31:26;17.40;;;5.17;;
12707;SDS011;6418;50.824;4.718;2023-08-08T10:34:03;10.63;;;4.63;;
12707;SDS011;6418;50.824;4.718;2023-08-08T10:36:47;11.37;;;4.93;;
12707;SDS011;6418;50.824;4.718;2023-08-08T10:39:15;16.13;;;4.90;;
12707;SDS011;6418;50.824;4.718;2023-08-08T10:41:44;14.17;;;4.97;;
12707;SDS011;6418;50.824;4.718;2023-08-08T10:44:20;10.97;;;4.80;;
12707;SDS011;6418;50.824;4.718;2023-08-08T10:46:48;12.00;;;4.83;;
12707;SDS011;6418;50.824;4.718;2023-08-08T10:49:16;11.30;;;4.50;;
12707;SDS011;6418;50.824;4.718;2023-08-08T10:51:44;11.50;;;5.00;;
12707;SDS011;6418;50.824;4.718;2023-08-08T10:54:13;12.73;;;4.50;;
12707;SDS011;6418;50.824;4.718;2023-08-08T10:56:47;10.80;;;4.47;;
12707;SDS011;6418;50.824;4.718;2023-08-08T10:59:17;11.17;;;4.50;;
12707;SDS011;6418;50.824;4.718;2023-08-08T11:01:46;13.47;;;4.77;;
12707;SDS011;6418;50.824;4.718;2023-08-08T11:04:14;12.27;;;4.60;;
12707;SDS011;6418;50.824;4.718;2023-08-08T11:06:42;11.37;;;4.27;;
12707;SDS011;6418;50.824;4.718;2023-08-08T11:09:09;11.50;;;4.53;;
12707;SDS011;6418;50.824;4.718;2023-08-08T11:11:37;11.70;;;3.97;;
12707;SDS011;6418;50.824;4.718;2023-08-08T11:14:11;15.30;;;4.40;;
12707;SDS011;6418;50.824;4.718;2023-08-08T11:16:40;10.03;;;4.40;;
12707;SDS011;6418;50.824;4.718;2023-08-08T18:23:37;12.47;;;6.70;;
12707;SDS011;6418;50.824;4.718;2023-08-08T18:26:04;12.50;;;6.70;;
12707;SDS011;6418;50.824;4.718;2023-08-08T18:28:31;13.10;;;6.73;;
12707;SDS011;6418;50.824;4.718;2023-08-08T18:30:58;12.40;;;6.40;;
12707;SDS011;6418;50.824;4.718;2023-08-08T18:33:25;12.90;;;6.10;;
12707;SDS011;6418;50.824;4.718;2023-08-08T18:35:52;13.77;;;6.20;;
12707;SDS011;6418;50.824;4.718;2023-08-08T18:38:20;13.30;;;6.50;;
12707;SDS011;6418;50.824;4.718;2023-08-08T18:40:48;15.67;;;6.50;;
12707;SDS011;6418;50.824;4.718;2023-08-08T18:43:16;15.07;;;6.27;;
12707;SDS011;6418;50.824;4.718;2023-08-08T18:45:43;12.90;;;6.50;;
12707;SDS011;6418;50.824;4.718;2023-08-08T18:48:10;13.70;;;6.50;;
12707;SDS011;6418;50.824;4.718;2023-08-08T18:50:37;16.27;;;7.00;;
12707;SDS011;6418;50.824;4.718;2023-08-08T18:53:05;20.20;;;7.00;;
12707;SDS011;6418;50.824;4.718;2023-08-08T18:55:32;15.77;;;6.97;;
12707;SDS011;6418;50.824;4.718;2023-08-08T18:58:01;16.33;;;6.50;;
12707;SDS011;6418;50.824;4.718;2023-08-08T19:00:28;13.63;;;6.40;;
12707;SDS011;6418;50.824;4.718;2023-08-08T19:02:55;15.63;;;6.33;;
12707;SDS011;6418;50.824;4.718;2023-08-08T19:05:22;17.63;;;6.90;;
12707;SDS011;6418;50.824;4.718;2023-08-08T19:07:49;14.93;;;6.30;;
12707;SDS011;6418;50.824;4.718;2023-08-08T19:10:16;24.20;;;7.00;;
12707;SDS011;6418;50.824;4.718;2023-08-08T19:12:44;15.40;;;6.70;;
12707;SDS011;6418;50.824;4.718;2023-08-08T19:15:12;15.40;;;6.93;;
12707;SDS011;6418;50.824;4.718;2023-08-08T19:17:39;14.43;;;6.70;;
12707;SDS011;6418;50.824;4.718;2023-08-08T19:20:07;19.27;;;7.10;;
12707;SDS011;6418;50.824;4.718;2023-08-08T19:22:35;13.37;;;6.93;;
12707;SDS011;6418;50.824;4.718;2023-08-08T19:25:02;15.00;;;6.97;;
12707;SDS011;6418;50.824;4.718;2023-08-08T19:27:30;15.33;;;6.80;;
12707;SDS011;6418;50.824;4.718;2023-08-08T19:29:57;14.03;;;7.27;;
12707;SDS011;6418;50.824;4.718;2023-08-08T19:32:25;16.90;;;7.33;;
12707;SDS011;6418;50.824;4.718;2023-08-08T19:34:52;14.87;;;7.77;;
12707;SDS011;6418;50.824;4.718;2023-08-08T19:37:19;17.33;;;7.67;;
12707;SDS011;6418;50.824;4.718;2023-08-08T19:39:46;16.37;;;8.13;;
12707;SDS011;6418;50.824;4.718;2023-08-08T19:42:13;16.10;;;7.67;;
12707;SDS011;6418;50.824;4.718;2023-08-08T19:44:40;17.70;;;7.77;;
12707;SDS011;6418;50.824;4.718;2023-08-08T19:47:07;15.47;;;8.13;;
12707;SDS011;6418;50.824;4.718;2023-08-08T19:49:35;17.53;;;8.43;;
12707;SDS011;6418;50.824;4.718;2023-08-08T19:52:03;17.17;;;8.70;;
12707;SDS011;6418;50.824;4.718;2023-08-08T19:54:30;17.50;;;8.90;;
12707;SDS011;6418;50.824;4.718;2023-08-08T19:56:57;17.70;;;8.80;;
12707;SDS011;6418;50.824;4.718;2023-08-08T19:59:24;17.07;;;8.87;;
12707;SDS011;6418;50.824;4.718;2023-08-08T20:01:51;18.23;;;8.90;;
12707;SDS011;6418;50.824;4.718;2023-08-08T20:04:17;18.20;;;9.10;;
12707;SDS011;6418;50.824;4.718;2023-08-08T20:06:46;17.07;;;8.90;;
12707;SDS011;6418;50.824;4.718;2023-08-08T20:09:13;20.33;;;9.30;;
12707;SDS011;6418;50.824;4.718;2023-08-08T20:11:40;18.30;;;8.77;;
12707;SDS011;6418;50.824;4.718;2023-08-08T20:14:07;17.07;;;8.63;;
12707;SDS011;6418;50.824;4.718;2023-08-08T20:16:34;18.43;;;9.57;;
12707;SDS011;6418;50.824;4.718;2023-08-08T20:19:02;17.37;;;9.07;;
12707;SDS011;6418;50.824;4.718;2023-08-08T20:21:29;17.27;;;9.00;;
12707;SDS011;6418;50.824;4.718;2023-08-08T20:23:58;20.33;;;10.40;;
12707;SDS011;6418;50.824;4.718;2023-08-08T20:26:25;18.47;;;9.73;;
12707;SDS011;6418;50.824;4.718;2023-08-08T20:28:52;19.90;;;9.47;;
12707;SDS011;6418;50.824;4.718;2023-08-08T20:31:19;18.60;;;9.97;;
12707;SDS011;6418;50.824;4.718;2023-08-08T20:33:46;21.33;;;10.73;;
12707;SDS011;6418;50.824;4.718;2023-08-08T20:36:14;19.93;;;10.43;;
12707;SDS011;6418;50.824;4.718;2023-08-08T20:38:41;18.63;;;9.73;;
12707;SDS011;6418;50.824;4.718;2023-08-08T20:41:10;16.80;;;9.17;;
12707;SDS011;6418;50.824;4.718;2023-08-08T20:43:37;18.03;;;9.20;;
12707;SDS011;6418;50.824;4.718;2023-08-08T20:46:05;17.17;;;9.10;;
12707;SDS011;6418;50.824;4.718;2023-08-08T20:48:35;18.13;;;9.23;;
12707;SDS011;6418;50.824;4.718;2023-08-08T20:51:02;16.67;;;9.73;;
12707;SDS011;6418;50.824;4.718;2023-08-08T20:53:29;23.00;;;10.10;;
12707;SDS011;6418;50.824;4.718;2023-08-08T20:55:56;19.03;;;9.83;;
12707;SDS011;6418;50.824;4.718;2023-08-08T20:58:25;20.53;;;10.10;;
12707;SDS011;6418;50.824;4.718;2023-08-08T21:00:51;20.00;;;9.83;;
12707;SDS011;6418;50.824;4.718;2023-08-08T21:03:18;18.53;;;9.63;;
12707;SDS011;6418;50.824;4.718;2023-08-08T21:05:45;19.33;;;10.17;;
12707;SDS011;6418;50.824;4.718;2023-08-08T21:08:13;18.67;;;9.67;;
12707;SDS011;6418;50.824;4.718;2023-08-08T21:10:40;22.60;;;10.73;;
12707;SDS011;6418;50.824;4.718;2023-08-08T21:13:07;19.10;;;9.83;;
12707;SDS011;6418;50.824;4.718;2023-08-08T21:15:35;21.50;;;10.17;;
12707;SDS011;6418;50.824;4.718;2023-08-08T21:18:02;23.37;;;10.70;;
12707;SDS011;6418;50.824;4.718;2023-08-08T21:20:30;21.40;;;10.40;;
12707;SDS011;6418;50.824;4.718;2023-08-08T21:22:57;23.47;;;11.43;;
12707;SDS011;6418;50.824;4.718;2023-08-08T21:25:24;22.23;;;11.00;;
12707;SDS011;6418;50.824;4.718;2023-08-08T21:27:51;21.83;;;10.90;;
12707;SDS011;6418;50.824;4.718;2023-08-08T21:30:18;18.33;;;10.60;;
12707;SDS011;6418;50.824;4.718;2023-08-08T21:32:46;20.60;;;11.13;;
12707;SDS011;6418;50.824;4.718;2023-08-08T21:35:13;24.30;;;11.27;;
12707;SDS011;6418;50.824;4.718;2023-08-08T21:37:40;20.67;;;10.47;;
12707;SDS011;6418;50.824;4.718;2023-08-08T21:40:07;18.57;;;9.90;;
12707;SDS011;6418;50.824;4.718;2023-08-08T21:42:36;21.37;;;9.67;;
12707;SDS011;6418;50.824;4.718;2023-08-08T21:45:03;22.37;;;9.80;;
12707;SDS011;6418;50.824;4.718;2023-08-08T21:47:31;19.50;;;10.03;;
12707;SDS011;6418;50.824;4.718;2023-08-08T21:49:59;17.93;;;8.80;;
12707;SDS011;6418;50.824;4.718;2023-08-08T21:52:26;17.57;;;8.70;;
12707;SDS011;6418;50.824;4.718;2023-08-08T21:54:53;17.97;;;9.03;;
12707;SDS011;6418;50.824;4.718;2023-08-08T21:57:20;20.83;;;9.73;;
12707;SDS011;6418;50.824;4.718;2023-08-08T21:59:47;17.13;;;8.47;;
12707;SDS011;6418;50.824;4.718;2023-08-08T22:02:14;17.53;;;8.77;;
12707;SDS011;6418;50.824;4.718;2023-08-08T22:04:41;19.53;;;9.00;;
12707;SDS011;6418;50.824;4.718;2023-08-08T22:07:10;19.33;;;8.73;;
12707;SDS011;6418;50.824;4.718;2023-08-08T22:09:37;17.47;;;9.43;;
12707;SDS011;6418;50.824;4.718;2023-08-08T22:12:04;16.30;;;9.33;;
12707;SDS011;6418;50.824;4.718;2023-08-08T22:14:31;20.07;;;9.13;;
12707;SDS011;6418;50.824;4.718;2023-08-08T22:16:58;16.83;;;8.60;;
12707;SDS011;6418;50.824;4.718;2023-08-08T22:19:25;19.13;;;8.97;;
12707;SDS011;6418;50.824;4.718;2023-08-08T22:21:52;17.87;;;9.00;;
12707;SDS011;6418;50.824;4.718;2023-08-08T22:24:20;18.07;;;8.93;;
12707;SDS011;6418;50.824;4.718;2023-08-08T22:26:48;17.87;;;9.00;;